Time;durP1;ratioP1;P1;durP2;ratioP2;P2;SDS_P1;SDS_P2;PMS_P1;PMS_P2;Temp;Humidity;BMP_temperature;BMP_pressure;BME280_temperature;BME280_humidity;BME280_pressure;Samples;Min_cycle;Max_cycle;Signal;HPM_P1;HPM_P2
2021/11/24 00:00:50;;;;;;;9.50;7.63;;;;;;;;;;5000262;28;20259;-72
2021/11/24 00:03:17;;;;;;;8.50;7.10;;;;;;;;;;4999219;28;20268;-72
2021/11/24 00:05:45;;;;;;;9.23;7.53;;;;;;;;;;5001037;28;20223;-71
2021/11/24 00:08:11;;;;;;;14.63;9.23;;;;;;;;;;5000183;28;20633;-71
2021/11/24 00:10:38;;;;;;;7.77;6.97;;;;;;;;;;4999738;28;20206;-71
2021/11/24 00:13:05;;;;;;;9.20;7.50;;;;;;;;;;5000194;28;20220;-71
2021/11/24 00:15:32;;;;;;;11.83;9.33;;;;;;;;;;5000046;28;20239;-71
2021/11/24 00:17:59;;;;;;;11.33;9.00;;;;;;;;;;4998673;28;20237;-72
2021/11/24 00:20:25;;;;;;;13.20;10.33;;;;;;;;;;5000162;28;20220;-71
2021/11/24 00:22:53;;;;;;;12.17;10.03;;;;;;;;;;4999904;28;20216;-72
2021/11/24 00:25:20;;;;;;;16.57;12.43;;;;;;;;;;4999564;28;20688;-72
2021/11/24 00:27:47;;;;;;;17.13;13.50;;;;;;;;;;4999748;28;20222;-71
2021/11/24 00:30:13;;;;;;;18.80;13.93;;;;;;;;;;5000454;28;20390;-71
2021/11/24 00:32:40;;;;;;;16.90;13.90;;;;;;;;;;4998803;28;20234;-73
2021/11/24 00:35:08;;;;;;;19.47;14.90;;;;;;;;;;5000295;28;20570;-71
2021/11/24 00:37:34;;;;;;;24.60;16.73;;;;;;;;;;5000785;28;20220;-72
2021/11/24 00:40:03;;;;;;;17.43;13.00;;;;;;;;;;4999749;28;20210;-72
2021/11/24 00:42:29;;;;;;;23.40;15.23;;;;;;;;;;4999489;28;20624;-72
2021/11/24 00:44:56;;;;;;;24.03;15.60;;;;;;;;;;5000848;28;20715;-71
2021/11/24 00:47:22;;;;;;;30.17;17.27;;;;;;;;;;4999081;28;20525;-71
2021/11/24 00:49:48;;;;;;;31.33;16.83;;;;;;;;;;4999860;28;20215;-72
2021/11/24 00:52:15;;;;;;;26.10;16.77;;;;;;;;;;5000800;28;20218;-72
2021/11/24 00:54:41;;;;;;;25.57;15.93;;;;;;;;;;4999117;28;20259;-71
2021/11/24 00:57:09;;;;;;;25.63;14.83;;;;;;;;;;4999990;28;20600;-72
2021/11/24 00:59:35;;;;;;;22.00;14.90;;;;;;;;;;5000265;28;20264;-72
2021/11/24 01:02:02;;;;;;;20.57;14.03;;;;;;;;;;4999666;28;20886;-72
2021/11/24 01:04:29;;;;;;;23.73;14.20;;;;;;;;;;4998623;28;20226;-72
2021/11/24 01:06:55;;;;;;;19.73;13.70;;;;;;;;;;5000033;28;20661;-72
2021/11/24 01:09:21;;;;;;;21.77;14.63;;;;;;;;;;5000205;28;20209;-72
2021/11/24 01:11:48;;;;;;;20.20;13.47;;;;;;;;;;4999901;28;20253;-72
2021/11/24 01:14:16;;;;;;;20.80;14.27;;;;;;;;;;4999153;28;20276;-72
2021/11/24 01:16:44;;;;;;;21.57;13.17;;;;;;;;;;4999978;28;20267;-72
2021/11/24 01:19:11;;;;;;;21.47;12.30;;;;;;;;;;4998518;28;20253;-72
2021/11/24 01:21:37;;;;;;;20.40;13.67;;;;;;;;;;4999585;28;20339;-72
2021/11/24 01:24:05;;;;;;;17.57;12.10;;;;;;;;;;4999948;28;20771;-72
2021/11/24 01:26:31;;;;;;;20.30;12.67;;;;;;;;;;5001963;28;20226;-72
2021/11/24 01:28:57;;;;;;;16.17;11.80;;;;;;;;;;5002300;28;20243;-72
2021/11/24 01:31:25;;;;;;;19.60;13.37;;;;;;;;;;5003681;28;20667;-72
2021/11/24 01:33:51;;;;;;;21.23;12.00;;;;;;;;;;5001991;28;20295;-72
2021/11/24 01:36:18;;;;;;;15.07;10.73;;;;;;;;;;5002462;28;20207;-72
2021/11/24 01:38:45;;;;;;;21.37;13.33;;;;;;;;;;5003249;28;20214;-72
2021/11/24 01:41:12;;;;;;;22.30;12.73;;;;;;;;;;5003126;28;20212;-72
2021/11/24 01:43:38;;;;;;;18.90;12.23;;;;;;;;;;5001545;28;20814;-72
2021/11/24 01:46:05;;;;;;;13.60;10.20;;;;;;;;;;5002637;28;20213;-72
2021/11/24 01:48:32;;;;;;;24.57;13.03;;;;;;;;;;5002714;28;20306;-72
2021/11/24 01:50:59;;;;;;;23.17;13.60;;;;;;;;;;5002065;28;20279;-71
2021/11/24 01:53:26;;;;;;;18.27;11.97;;;;;;;;;;5002368;28;20213;-72
2021/11/24 01:55:55;;;;;;;16.43;11.93;;;;;;;;;;5002690;28;20225;-71
2021/11/24 01:58:21;;;;;;;21.73;13.13;;;;;;;;;;5001114;28;20222;-72
2021/11/24 02:00:48;;;;;;;17.90;11.50;;;;;;;;;;5001843;28;20221;-72
2021/11/24 02:03:14;;;;;;;22.67;13.17;;;;;;;;;;5002712;28;20271;-72
2021/11/24 02:05:42;;;;;;;18.07;11.70;;;;;;;;;;5001750;28;20229;-72
2021/11/24 02:08:08;;;;;;;17.00;12.03;;;;;;;;;;5001668;28;20255;-72
2021/11/24 02:10:35;;;;;;;16.37;11.10;;;;;;;;;;5002211;28;20270;-72
2021/11/24 02:13:01;;;;;;;15.13;11.27;;;;;;;;;;5002331;28;20209;-72
2021/11/24 02:15:28;;;;;;;18.23;11.80;;;;;;;;;;5001918;28;20831;-72
2021/11/24 02:17:55;;;;;;;15.07;10.40;;;;;;;;;;5001472;28;20282;-72
2021/11/24 02:20:39;;;;;;;17.43;11.30;;;;;;;;;;5002103;28;20232;-72
2021/11/24 02:23:08;;;;;;;12.33;9.33;;;;;;;;;;5001733;28;20226;-72
2021/11/24 02:25:35;;;;;;;17.57;10.77;;;;;;;;;;5001611;28;20228;-72
2021/11/24 02:28:01;;;;;;;14.33;10.67;;;;;;;;;;5002797;28;20206;-71
2021/11/24 02:30:29;;;;;;;18.57;11.80;;;;;;;;;;5001160;28;20222;-72
2021/11/24 02:32:56;;;;;;;15.17;9.90;;;;;;;;;;5000549;28;20361;-72
2021/11/24 02:35:22;;;;;;;13.10;9.70;;;;;;;;;;5002445;28;20834;-72
2021/11/24 02:37:50;;;;;;;15.07;9.73;;;;;;;;;;5000412;28;20214;-72
2021/11/24 02:40:16;;;;;;;17.13;10.47;;;;;;;;;;5001182;28;21128;-72
2021/11/24 02:42:43;;;;;;;15.67;9.87;;;;;;;;;;5001250;28;20265;-72
2021/11/24 02:45:11;;;;;;;11.70;9.53;;;;;;;;;;5001288;28;20306;-72
2021/11/24 02:47:37;;;;;;;12.87;9.03;;;;;;;;;;5000461;28;20248;-72
2021/11/24 02:50:05;;;;;;;17.37;10.07;;;;;;;;;;5001360;28;20218;-72
2021/11/24 02:52:32;;;;;;;12.67;9.07;;;;;;;;;;5001613;28;20295;-72
2021/11/24 02:55:02;;;;;;;10.77;8.63;;;;;;;;;;5000257;28;21237;-72
2021/11/24 02:57:33;;;;;;;9.47;8.17;;;;;;;;;;5001579;28;20315;-72
2021/11/24 03:00:00;;;;;;;11.47;7.73;;;;;;;;;;5000924;28;20240;-72
2021/11/24 03:02:27;;;;;;;9.60;8.33;;;;;;;;;;5000276;28;20288;-72
2021/11/24 03:04:54;;;;;;;12.03;8.23;;;;;;;;;;5001311;28;20291;-72
2021/11/24 03:07:20;;;;;;;10.47;7.40;;;;;;;;;;5001822;28;20280;-72
2021/11/24 03:09:47;;;;;;;9.23;7.13;;;;;;;;;;5000382;28;20220;-72
2021/11/24 03:12:15;;;;;;;10.07;7.07;;;;;;;;;;5001079;28;20224;-72
2021/11/24 03:14:42;;;;;;;10.13;7.83;;;;;;;;;;5001308;28;20312;-71
2021/11/24 03:17:08;;;;;;;9.10;7.67;;;;;;;;;;4999669;28;20231;-72
2021/11/24 03:19:35;;;;;;;9.10;7.87;;;;;;;;;;5000579;28;20679;-72
2021/11/24 03:22:01;;;;;;;10.60;8.30;;;;;;;;;;5001670;28;20214;-72
2021/11/24 03:24:28;;;;;;;11.77;7.47;;;;;;;;;;4999931;28;20235;-71
2021/11/24 03:26:54;;;;;;;11.87;7.80;;;;;;;;;;5000490;28;20360;-71
2021/11/24 03:29:22;;;;;;;9.30;6.33;;;;;;;;;;5001916;28;20213;-72
2021/11/24 03:31:48;;;;;;;10.40;6.90;;;;;;;;;;5000186;28;20314;-72
2021/11/24 03:34:14;;;;;;;10.40;7.87;;;;;;;;;;5000437;28;20710;-71
2021/11/24 03:36:41;;;;;;;8.57;6.57;;;;;;;;;;5000862;28;20280;-71
2021/11/24 03:39:07;;;;;;;9.00;7.23;;;;;;;;;;5000670;28;20250;-71
2021/11/24 03:41:34;;;;;;;8.67;6.20;;;;;;;;;;4999985;28;20218;-72
2021/11/24 03:44:00;;;;;;;8.53;6.77;;;;;;;;;;5000820;28;20328;-72
2021/11/24 03:46:28;;;;;;;9.97;5.90;;;;;;;;;;4999919;28;20957;-72
2021/11/24 03:48:54;;;;;;;8.73;5.40;;;;;;;;;;4999347;28;20244;-72
2021/11/24 03:51:21;;;;;;;8.97;6.60;;;;;;;;;;5001541;28;20271;-72
2021/11/24 03:53:48;;;;;;;8.33;6.47;;;;;;;;;;5000154;28;20218;-72
2021/11/24 03:56:15;;;;;;;7.53;6.20;;;;;;;;;;4999959;28;20212;-72
2021/11/24 03:58:41;;;;;;;7.10;5.53;;;;;;;;;;5000393;28;20754;-72
2021/11/24 04:01:09;;;;;;;7.33;5.97;;;;;;;;;;5000675;28;20226;-72
2021/11/24 04:03:36;;;;;;;6.30;5.70;;;;;;;;;;4999832;28;20688;-72
2021/11/24 04:06:03;;;;;;;6.97;5.80;;;;;;;;;;5000547;28;20233;-72
2021/11/24 04:08:30;;;;;;;9.63;5.80;;;;;;;;;;5000704;28;20768;-72
2021/11/24 04:10:56;;;;;;;8.00;6.40;;;;;;;;;;4999939;28;20276;-72
2021/11/24 04:13:22;;;;;;;8.57;6.13;;;;;;;;;;5000742;28;20578;-72
2021/11/24 04:15:49;;;;;;;8.07;6.00;;;;;;;;;;5000412;28;20264;-72
2021/11/24 04:18:15;;;;;;;7.67;6.63;;;;;;;;;;4998960;28;20523;-72
2021/11/24 04:20:43;;;;;;;8.70;6.97;;;;;;;;;;5000008;28;20217;-72
2021/11/24 04:23:09;;;;;;;8.53;7.17;;;;;;;;;;5000438;28;20649;-72
2021/11/24 04:25:36;;;;;;;7.87;6.63;;;;;;;;;;4999594;28;20279;-72
2021/11/24 04:28:02;;;;;;;9.10;7.30;;;;;;;;;;4999853;28;20216;-72
2021/11/24 04:30:29;;;;;;;8.93;7.90;;;;;;;;;;5000748;28;20210;-72
2021/11/24 04:32:55;;;;;;;9.87;7.60;;;;;;;;;;4998920;28;20229;-72
2021/11/24 04:35:21;;;;;;;8.40;7.37;;;;;;;;;;5000035;28;20214;-72
2021/11/24 04:37:50;;;;;;;13.47;9.10;;;;;;;;;;5000813;28;20652;-72
2021/11/24 04:40:16;;;;;;;6.60;5.83;;;;;;;;;;4999160;28;20238;-72
2021/11/24 04:42:44;;;;;;;10.67;6.97;;;;;;;;;;4998668;28;20245;-72
2021/11/24 04:45:10;;;;;;;7.23;6.00;;;;;;;;;;5000103;28;20251;-72
2021/11/24 04:47:37;;;;;;;6.10;5.23;;;;;;;;;;4999197;28;20256;-72
2021/11/24 04:50:04;;;;;;;6.93;5.03;;;;;;;;;;4998950;28;20272;-72
2021/11/24 04:52:31;;;;;;;6.27;4.83;;;;;;;;;;5000287;28;20846;-72
2021/11/24 04:54:58;;;;;;;5.37;4.87;;;;;;;;;;4999653;28;20687;-72
2021/11/24 04:57:25;;;;;;;7.07;5.13;;;;;;;;;;4999326;28;20212;-72
2021/11/24 04:59:51;;;;;;;7.53;4.90;;;;;;;;;;5000114;28;20266;-72
2021/11/24 05:02:17;;;;;;;7.60;5.23;;;;;;;;;;5003479;28;20232;-72
2021/11/24 05:04:44;;;;;;;8.43;5.10;;;;;;;;;;5002416;28;20948;-72
2021/11/24 05:07:10;;;;;;;6.10;4.87;;;;;;;;;;5003287;28;20222;-72
2021/11/24 05:09:37;;;;;;;7.70;5.50;;;;;;;;;;5002867;28;20677;-72
2021/11/24 05:12:05;;;;;;;5.67;5.10;;;;;;;;;;5003239;28;20239;-72
2021/11/24 05:14:34;;;;;;;6.03;4.40;;;;;;;;;;5003347;28;21125;-72
2021/11/24 05:17:03;;;;;;;6.00;4.47;;;;;;;;;;5003158;28;20217;-72
2021/11/24 05:19:31;;;;;;;5.00;4.17;;;;;;;;;;5002673;28;20220;-72
2021/11/24 05:21:59;;;;;;;4.83;4.10;;;;;;;;;;5001955;28;20213;-72
2021/11/24 05:24:25;;;;;;;6.23;5.17;;;;;;;;;;5003739;28;20212;-72
2021/11/24 05:26:52;;;;;;;4.50;3.97;;;;;;;;;;5001686;28;20228;-72
2021/11/24 05:29:20;;;;;;;6.27;4.50;;;;;;;;;;5002272;28;20231;-72
2021/11/24 05:31:46;;;;;;;6.43;4.60;;;;;;;;;;5001999;28;20343;-74
2021/11/24 05:34:12;;;;;;;9.10;4.40;;;;;;;;;;4999981;28;20228;-75
2021/11/24 05:36:39;;;;;;;5.70;4.73;;;;;;;;;;5001077;28;20860;-75
2021/11/24 05:39:08;;;;;;;4.97;4.47;;;;;;;;;;5001332;28;20336;-75
2021/11/24 05:41:38;;;;;;;10.73;5.10;;;;;;;;;;5001307;28;20214;-74
2021/11/24 05:44:16;;;;;;;14.37;4.93;;;;;;;;;;5001395;28;20216;-75
2021/11/24 05:46:46;;;;;;;5.57;4.63;;;;;;;;;;5002717;28;20334;-74
2021/11/24 05:49:13;;;;;;;8.10;5.37;;;;;;;;;;5002647;28;20270;-75
2021/11/24 05:51:39;;;;;;;5.80;4.80;;;;;;;;;;5002629;28;20270;-75
2021/11/24 05:54:06;;;;;;;7.53;5.00;;;;;;;;;;5002298;28;20673;-75
2021/11/24 05:56:34;;;;;;;4.93;4.40;;;;;;;;;;5003674;28;20973;-74
2021/11/24 05:59:00;;;;;;;6.93;4.77;;;;;;;;;;5002335;28;20267;-75
2021/11/24 06:01:27;;;;;;;5.17;4.20;;;;;;;;;;5002332;28;20267;-74
2021/11/24 06:03:55;;;;;;;6.00;4.50;;;;;;;;;;5002991;28;20558;-74
2021/11/24 06:06:21;;;;;;;7.43;4.00;;;;;;;;;;5002094;28;20234;-75
2021/11/24 06:08:48;;;;;;;4.30;3.90;;;;;;;;;;5001849;28;20205;-74
2021/11/24 06:11:14;;;;;;;5.10;4.60;;;;;;;;;;5002665;28;20209;-75
2021/11/24 06:13:41;;;;;;;5.03;4.23;;;;;;;;;;5000711;28;20212;-74
2021/11/24 06:16:07;;;;;;;5.30;4.67;;;;;;;;;;5001427;28;20213;-74
2021/11/24 06:18:33;;;;;;;5.30;4.23;;;;;;;;;;5002030;28;21121;-75
2021/11/24 06:21:01;;;;;;;6.00;4.47;;;;;;;;;;5001604;28;20324;-74
2021/11/24 06:23:28;;;;;;;5.83;4.87;;;;;;;;;;5001510;28;20263;-74
2021/11/24 06:25:54;;;;;;;5.87;4.73;;;;;;;;;;5002266;28;20277;-75
2021/11/24 06:28:21;;;;;;;5.80;4.80;;;;;;;;;;5002039;28;20355;-75
2021/11/24 06:30:47;;;;;;;5.73;4.33;;;;;;;;;;5000724;28;20727;-74
2021/11/24 06:33:14;;;;;;;5.60;4.40;;;;;;;;;;5002222;28;20707;-74
2021/11/24 06:35:40;;;;;;;5.03;4.50;;;;;;;;;;5001831;28;20218;-74
2021/11/24 06:38:08;;;;;;;4.73;4.27;;;;;;;;;;5000827;28;20315;-74
2021/11/24 06:40:35;;;;;;;5.43;4.27;;;;;;;;;;5001523;28;20735;-75
2021/11/24 06:43:01;;;;;;;3.77;3.20;;;;;;;;;;5001363;28;20215;-74
2021/11/24 06:45:28;;;;;;;7.50;3.77;;;;;;;;;;5000762;28;20241;-74
2021/11/24 06:47:54;;;;;;;4.00;3.33;;;;;;;;;;5000561;28;20249;-74
2021/11/24 06:50:21;;;;;;;4.10;3.70;;;;;;;;;;5001944;28;20220;-74
2021/11/24 06:52:47;;;;;;;3.50;3.13;;;;;;;;;;5000501;28;20243;-74
2021/11/24 06:55:15;;;;;;;6.03;2.70;;;;;;;;;;5001035;28;20279;-74
2021/11/24 06:57:42;;;;;;;5.30;3.57;;;;;;;;;;5001173;28;20859;-75
2021/11/24 07:00:10;;;;;;;3.33;2.63;;;;;;;;;;5000904;28;20293;-74
2021/11/24 07:02:37;;;;;;;3.17;2.73;;;;;;;;;;4997897;28;20297;-74
2021/11/24 07:05:04;;;;;;;5.63;2.67;;;;;;;;;;5000973;28;20226;-75
2021/11/24 07:07:30;;;;;;;5.20;2.43;;;;;;;;;;4998085;28;20263;-74
2021/11/24 07:09:57;;;;;;;3.90;2.70;;;;;;;;;;4998979;28;20226;-75
2021/11/24 07:12:25;;;;;;;3.60;2.97;;;;;;;;;;4997251;28;20203;-76
2021/11/24 07:14:52;;;;;;;4.77;2.60;;;;;;;;;;4998207;28;20255;-74
2021/11/24 07:17:19;;;;;;;3.50;3.10;;;;;;;;;;4997347;28;20232;-74
2021/11/24 07:19:45;;;;;;;3.20;2.90;;;;;;;;;;4997062;28;20671;-74
2021/11/24 07:22:11;;;;;;;5.07;3.20;;;;;;;;;;4998147;28;20212;-74
2021/11/24 07:24:38;;;;;;;5.50;3.43;;;;;;;;;;4999002;28;20717;-76
2021/11/24 07:27:05;;;;;;;3.10;2.73;;;;;;;;;;4998397;28;20235;-74
2021/11/24 07:29:32;;;;;;;5.00;3.03;;;;;;;;;;4998719;28;20211;-74
2021/11/24 07:31:59;;;;;;;3.80;3.10;;;;;;;;;;4998038;28;20667;-74
2021/11/24 07:34:25;;;;;;;5.53;3.13;;;;;;;;;;4998832;28;20235;-74
2021/11/24 07:36:52;;;;;;;4.43;3.67;;;;;;;;;;4997191;28;20645;-74
2021/11/24 07:39:19;;;;;;;3.73;3.00;;;;;;;;;;4998729;28;20215;-75
2021/11/24 07:41:45;;;;;;;4.20;3.70;;;;;;;;;;4997792;28;20235;-74
2021/11/24 07:44:12;;;;;;;7.03;4.47;;;;;;;;;;4997783;28;20227;-76
2021/11/24 07:46:39;;;;;;;5.33;3.73;;;;;;;;;;4998767;28;20320;-74
2021/11/24 07:49:06;;;;;;;3.90;3.40;;;;;;;;;;4997222;28;20248;-74
2021/11/24 07:51:32;;;;;;;4.93;3.80;;;;;;;;;;4998481;28;20225;-73
2021/11/24 07:53:59;;;;;;;4.33;3.60;;;;;;;;;;4998147;28;20210;-73
2021/11/24 07:56:25;;;;;;;4.97;3.67;;;;;;;;;;4997839;28;20755;-74
2021/11/24 07:58:51;;;;;;;8.07;4.10;;;;;;;;;;4998274;28;20216;-74
2021/11/24 08:01:18;;;;;;;5.77;3.57;;;;;;;;;;4998289;28;20270;-74
2021/11/24 08:03:46;;;;;;;6.43;4.10;;;;;;;;;;4997942;28;20302;-74
2021/11/24 08:06:12;;;;;;;4.40;3.30;;;;;;;;;;4998169;28;20772;-75
2021/11/24 08:08:39;;;;;;;4.03;3.07;;;;;;;;;;4998159;28;20234;-73
2021/11/24 08:11:06;;;;;;;5.10;3.73;;;;;;;;;;4997859;28;20212;-73
2021/11/24 08:13:32;;;;;;;4.93;3.23;;;;;;;;;;4997495;28;20219;-73
2021/11/24 08:15:59;;;;;;;6.37;4.47;;;;;;;;;;4998463;28;20923;-74
2021/11/24 08:18:26;;;;;;;6.27;5.07;;;;;;;;;;4996459;28;20693;-76
2021/11/24 08:20:53;;;;;;;5.90;5.30;;;;;;;;;;4998640;28;20280;-74
2021/11/24 08:23:20;;;;;;;5.20;4.17;;;;;;;;;;4997061;28;20227;-74
2021/11/24 08:25:47;;;;;;;5.10;3.93;;;;;;;;;;4997330;28;20323;-75
2021/11/24 08:28:13;;;;;;;3.97;3.57;;;;;;;;;;4997951;28;20216;-73
2021/11/24 08:30:40;;;;;;;5.17;3.87;;;;;;;;;;4997268;28;20212;-74
2021/11/24 08:33:06;;;;;;;4.20;3.80;;;;;;;;;;4995971;28;20322;-73
2021/11/24 08:35:33;;;;;;;4.53;4.13;;;;;;;;;;4998997;28;20846;-73
2021/11/24 08:38:01;;;;;;;5.80;3.87;;;;;;;;;;5001583;28;20262;-73
2021/11/24 08:40:27;;;;;;;4.20;3.80;;;;;;;;;;5001865;28;20213;-73
2021/11/24 08:42:54;;;;;;;4.93;4.53;;;;;;;;;;5000758;28;20223;-73
2021/11/24 08:45:20;;;;;;;6.10;4.50;;;;;;;;;;5002282;28;20216;-73
2021/11/24 08:47:47;;;;;;;5.73;4.20;;;;;;;;;;5000234;28;20264;-74
2021/11/24 08:50:15;;;;;;;5.50;4.67;;;;;;;;;;5001429;28;20312;-74
2021/11/24 08:52:42;;;;;;;5.23;4.37;;;;;;;;;;5001560;28;20212;-73
2021/11/24 08:55:12;;;;;;;6.13;4.80;;;;;;;;;;5001067;28;20264;-74
2021/11/24 08:57:38;;;;;;;5.33;4.83;;;;;;;;;;5001975;28;20217;-74
2021/11/24 09:00:06;;;;;;;5.13;4.43;;;;;;;;;;5001323;28;20217;-74
2021/11/24 09:02:33;;;;;;;5.10;4.60;;;;;;;;;;5001320;28;20574;-74
2021/11/24 09:05:00;;;;;;;4.53;4.13;;;;;;;;;;5000938;28;20220;-74
2021/11/24 09:07:26;;;;;;;5.53;4.17;;;;;;;;;;5001313;28;20345;-74
2021/11/24 09:09:52;;;;;;;6.10;4.73;;;;;;;;;;5000740;28;20217;-74
2021/11/24 09:12:20;;;;;;;4.50;4.10;;;;;;;;;;5000110;28;20216;-74
2021/11/24 09:14:47;;;;;;;4.70;4.30;;;;;;;;;;5000995;28;20213;-74
2021/11/24 09:17:13;;;;;;;4.70;3.70;;;;;;;;;;5000136;28;20272;-74
2021/11/24 09:19:40;;;;;;;5.53;4.13;;;;;;;;;;5000045;28;20635;-74
2021/11/24 09:22:07;;;;;;;4.10;3.70;;;;;;;;;;5000947;28;20237;-75
2021/11/24 09:24:34;;;;;;;3.87;3.47;;;;;;;;;;5000382;28;20212;-74
2021/11/24 09:27:03;;;;;;;4.53;3.83;;;;;;;;;;5001398;28;20243;-74
2021/11/24 09:29:30;;;;;;;4.63;4.20;;;;;;;;;;5000279;28;20369;-74
2021/11/24 09:31:57;;;;;;;5.37;4.13;;;;;;;;;;5000772;28;20295;-74
2021/11/24 09:34:25;;;;;;;4.00;3.60;;;;;;;;;;5000818;28;20231;-74
2021/11/24 09:36:51;;;;;;;5.93;3.73;;;;;;;;;;5000543;28;20213;-74
2021/11/24 09:39:18;;;;;;;3.83;3.53;;;;;;;;;;5001002;28;20210;-74
2021/11/24 09:41:46;;;;;;;4.57;3.30;;;;;;;;;;4999586;28;20797;-74
2021/11/24 09:44:13;;;;;;;3.87;3.47;;;;;;;;;;5000761;28;20216;-74
2021/11/24 09:46:44;;;;;;;4.20;3.80;;;;;;;;;;5000063;28;20236;-74
2021/11/24 09:49:11;;;;;;;4.40;3.30;;;;;;;;;;4999538;28;20272;-74
2021/11/24 09:51:39;;;;;;;3.57;3.00;;;;;;;;;;5000830;28;20211;-74
2021/11/24 09:54:06;;;;;;;4.53;3.40;;;;;;;;;;4999732;28;20218;-74
2021/11/24 09:56:36;;;;;;;5.43;3.27;;;;;;;;;;5000768;28;20204;-74
2021/11/24 09:59:03;;;;;;;6.17;3.43;;;;;;;;;;5000029;28;20324;-74
2021/11/24 10:01:29;;;;;;;5.57;3.80;;;;;;;;;;4999431;28;20213;-74
2021/11/24 10:03:57;;;;;;;4.00;3.50;;;;;;;;;;5000369;28;20252;-74
2021/11/24 10:06:24;;;;;;;6.27;3.90;;;;;;;;;;4999037;28;20226;-74
2021/11/24 10:08:51;;;;;;;4.23;3.47;;;;;;;;;;5000260;28;20287;-74
2021/11/24 10:11:17;;;;;;;3.67;3.37;;;;;;;;;;4998662;28;20208;-74
2021/11/24 10:13:45;;;;;;;4.40;3.50;;;;;;;;;;4999718;28;20905;-74
2021/11/24 10:16:20;;;;;;;3.37;3.07;;;;;;;;;;4998972;28;20597;-74
2021/11/24 10:18:58;;;;;;;4.77;3.23;;;;;;;;;;4999050;28;20724;-75
2021/11/24 10:21:25;;;;;;;4.77;3.07;;;;;;;;;;4999692;28;20759;-75
2021/11/24 10:23:52;;;;;;;4.00;3.37;;;;;;;;;;4999089;28;20716;-77
2021/11/24 10:26:22;;;;;;;5.70;3.77;;;;;;;;;;4999376;28;20397;-73
2021/11/24 10:28:52;;;;;;;3.27;2.93;;;;;;;;;;4999424;28;20212;-73
2021/11/24 10:31:41;;;;;;;3.27;2.97;;;;;;;;;;4999013;28;20278;-74
2021/11/24 10:34:17;;;;;;;3.50;2.37;;;;;;;;;;4992987;28;20231;-74
2021/11/24 10:36:52;;;;;;;2.60;2.10;;;;;;;;;;4999111;28;20490;-74
2021/11/24 10:39:19;;;;;;;4.53;2.20;;;;;;;;;;4998799;28;20268;-74
2021/11/24 10:41:46;;;;;;;3.60;2.50;;;;;;;;;;4998696;28;20666;-74
2021/11/24 10:44:26;;;;;;;2.50;2.17;;;;;;;;;;4998499;28;20246;-74
2021/11/24 10:46:54;;;;;;;3.07;2.57;;;;;;;;;;4998595;28;20324;-74
2021/11/24 10:49:31;;;;;;;3.43;2.00;;;;;;;;;;4999269;28;20276;-74
2021/11/24 10:51:57;;;;;;;2.60;2.10;;;;;;;;;;4998449;28;20839;-74
2021/11/24 10:54:24;;;;;;;2.83;2.30;;;;;;;;;;4999776;28;20271;-74
2021/11/24 10:57:04;;;;;;;2.37;1.97;;;;;;;;;;4998165;28;20619;-74
2021/11/24 10:59:32;;;;;;;3.60;1.67;;;;;;;;;;4998722;28;20228;-74
2021/11/24 11:02:18;;;;;;;2.73;1.83;;;;;;;;;;4998979;28;21085;-74
2021/11/24 11:05:13;;;;;;;3.90;1.83;;;;;;;;;;4998121;28;20216;-73
2021/11/24 11:07:43;;;;;;;1.90;1.50;;;;;;;;;;4973976;28;21516;-73
2021/11/24 11:10:19;;;;;;;1.70;1.60;;;;;;;;;;5000347;28;20592;-73
2021/11/24 11:12:48;;;;;;;3.13;1.47;;;;;;;;;;4998304;28;20740;-73
2021/11/24 11:15:33;;;;;;;1.43;1.33;;;;;;;;;;4998745;28;21146;-73
2021/11/24 11:18:14;;;;;;;1.97;1.53;;;;;;;;;;4996328;28;20549;-73
2021/11/24 11:20:45;;;;;;;3.97;1.60;;;;;;;;;;4997869;28;20670;-73
2021/11/24 11:23:18;;;;;;;2.47;1.10;;;;;;;;;;4998752;28;20242;-73
2021/11/24 11:25:46;;;;;;;1.30;1.03;;;;;;;;;;4997493;28;20209;-74
2021/11/24 11:28:15;;;;;;;2.50;1.27;;;;;;;;;;4996904;28;20816;-74
2021/11/24 11:30:44;;;;;;;1.67;1.30;;;;;;;;;;4997688;28;20773;-73
2021/11/24 11:33:13;;;;;;;1.73;1.40;;;;;;;;;;4997978;28;20315;-74
2021/11/24 11:35:40;;;;;;;3.30;1.50;;;;;;;;;;4998410;28;20221;-75
2021/11/24 11:38:08;;;;;;;1.57;1.43;;;;;;;;;;4997108;28;20919;-74
2021/11/24 11:40:36;;;;;;;2.23;1.37;;;;;;;;;;4999717;28;20209;-75
2021/11/24 11:43:04;;;;;;;2.73;1.60;;;;;;;;;;4997651;28;20233;-75
2021/11/24 11:45:32;;;;;;;1.83;1.40;;;;;;;;;;4998624;28;20282;-75
2021/11/24 11:48:01;;;;;;;2.83;2.07;;;;;;;;;;4998251;28;20330;-75
2021/11/24 11:50:47;;;;;;;1.97;1.43;;;;;;;;;;4997283;28;20661;-75
2021/11/24 11:53:18;;;;;;;2.23;2.03;;;;;;;;;;4998978;28;20569;-74
2021/11/24 11:55:46;;;;;;;3.83;1.63;;;;;;;;;;4998722;28;20206;-73
2021/11/24 11:58:24;;;;;;;1.90;1.50;;;;;;;;;;4997465;28;20210;-74
2021/11/24 12:01:08;;;;;;;2.27;1.70;;;;;;;;;;4998611;28;20220;-74
2021/11/24 12:03:58;;;;;;;1.97;1.77;;;;;;;;;;4996996;28;20313;-74
2021/11/24 12:06:27;;;;;;;2.30;1.97;;;;;;;;;;4997225;28;20261;-73
2021/11/24 12:09:26;;;;;;;2.40;1.80;;;;;;;;;;4998503;28;20579;-74
2021/11/24 12:12:21;;;;;;;2.23;1.77;;;;;;;;;;4916941;29;20557;-74
2021/11/24 12:15:15;;;;;;;2.70;1.67;;;;;;;;;;4995097;28;20218;-73
2021/11/24 12:17:48;;;;;;;2.03;1.60;;;;;;;;;;4994760;28;20224;-73
2021/11/24 12:20:47;;;;;;;2.07;1.87;;;;;;;;;;4996648;28;20210;-74
2021/11/24 12:23:21;;;;;;;2.50;2.10;;;;;;;;;;4997543;28;20751;-73
2021/11/24 12:25:50;;;;;;;2.50;2.20;;;;;;;;;;4998342;28;20211;-74
2021/11/24 12:28:20;;;;;;;3.47;2.27;;;;;;;;;;4996620;28;20753;-74
2021/11/24 12:31:11;;;;;;;2.67;2.37;;;;;;;;;;4998870;28;20216;-73
2021/11/24 12:33:48;;;;;;;4.30;2.77;;;;;;;;;;4997744;28;20695;-74
2021/11/24 12:36:17;;;;;;;2.60;2.40;;;;;;;;;;4996518;28;20214;-74
2021/11/24 12:38:45;;;;;;;3.50;3.03;;;;;;;;;;4997856;28;20217;-74
2021/11/24 12:41:16;;;;;;;3.40;2.50;;;;;;;;;;4997300;28;20220;-74
2021/11/24 12:43:44;;;;;;;2.80;2.60;;;;;;;;;;4996890;28;20213;-75
2021/11/24 12:46:15;;;;;;;2.60;2.40;;;;;;;;;;4997244;28;20826;-74
2021/11/24 12:48:46;;;;;;;3.00;2.60;;;;;;;;;;4995795;28;21031;-75
2021/11/24 12:51:19;;;;;;;3.40;2.90;;;;;;;;;;4997711;28;20242;-74
2021/11/24 12:53:50;;;;;;;4.10;2.60;;;;;;;;;;4996814;28;20213;-74
2021/11/24 12:56:18;;;;;;;2.77;2.57;;;;;;;;;;4996678;28;20303;-75
2021/11/24 12:58:44;;;;;;;2.50;2.30;;;;;;;;;;4997357;28;21088;-74
2021/11/24 13:01:19;;;;;;;3.20;2.80;;;;;;;;;;4996387;28;20626;-73
2021/11/24 13:03:47;;;;;;;6.50;2.70;;;;;;;;;;4996997;28;20235;-74
2021/11/24 13:06:14;;;;;;;4.67;3.20;;;;;;;;;;4996792;28;20213;-76
2021/11/24 13:08:40;;;;;;;3.20;2.40;;;;;;;;;;4997143;28;20306;-76
2021/11/24 13:11:09;;;;;;;3.60;2.40;;;;;;;;;;4997235;28;20271;-73
2021/11/24 13:13:38;;;;;;;3.43;2.27;;;;;;;;;;4996928;28;20292;-73
2021/11/24 13:16:19;;;;;;;2.90;2.40;;;;;;;;;;4997937;28;20219;-74
2021/11/24 13:18:50;;;;;;;2.63;2.43;;;;;;;;;;4996508;28;20221;-76
2021/11/24 13:21:16;;;;;;;3.07;2.50;;;;;;;;;;4998056;28;20434;-76
2021/11/24 13:23:43;;;;;;;2.90;2.50;;;;;;;;;;5001906;28;20514;-75
2021/11/24 13:26:09;;;;;;;3.73;2.50;;;;;;;;;;5000821;28;21150;-75
2021/11/24 13:28:38;;;;;;;5.63;2.77;;;;;;;;;;5001440;28;20287;-73
2021/11/24 13:31:04;;;;;;;4.03;2.47;;;;;;;;;;5000861;28;20204;-75
2021/11/24 13:33:33;;;;;;;3.13;2.60;;;;;;;;;;4999969;28;20229;-74
2021/11/24 13:36:09;;;;;;;3.13;2.83;;;;;;;;;;5001292;28;20872;-75
2021/11/24 13:38:37;;;;;;;2.77;2.57;;;;;;;;;;5000438;28;20221;-75
2021/11/24 13:41:14;;;;;;;3.17;2.87;;;;;;;;;;5001372;28;20266;-75
2021/11/24 13:43:44;;;;;;;3.27;2.63;;;;;;;;;;4999704;28;20216;-75
2021/11/24 13:46:13;;;;;;;2.67;2.47;;;;;;;;;;5000109;28;20427;-75
2021/11/24 13:48:40;;;;;;;3.83;3.43;;;;;;;;;;5000340;28;20243;-75
2021/11/24 13:51:09;;;;;;;3.20;2.90;;;;;;;;;;4999829;28;20224;-75
2021/11/24 13:53:37;;;;;;;4.03;2.93;;;;;;;;;;5000572;28;20216;-74
2021/11/24 13:56:09;;;;;;;2.93;2.70;;;;;;;;;;5000387;28;20808;-74
2021/11/24 13:58:35;;;;;;;3.40;2.50;;;;;;;;;;5000815;28;20213;-74
2021/11/24 14:01:15;;;;;;;4.60;2.70;;;;;;;;;;5001080;28;20247;-74
2021/11/24 14:03:48;;;;;;;3.80;2.80;;;;;;;;;;4999869;28;20569;-74
2021/11/24 14:06:37;;;;;;;4.50;2.80;;;;;;;;;;5001125;28;20217;-74
2021/11/24 14:09:18;;;;;;;3.10;2.80;;;;;;;;;;5000104;28;20229;-75
2021/11/24 14:11:56;;;;;;;2.33;2.13;;;;;;;;;;4999978;28;20390;-74
2021/11/24 14:14:23;;;;;;;3.80;3.40;;;;;;;;;;5000378;28;20211;-74
2021/11/24 14:16:57;;;;;;;3.17;2.77;;;;;;;;;;5000464;28;20278;-74
2021/11/24 14:19:24;;;;;;;3.43;3.07;;;;;;;;;;4999026;28;20229;-74
2021/11/24 14:21:52;;;;;;;3.60;2.33;;;;;;;;;;5000802;28;20218;-74
2021/11/24 14:24:19;;;;;;;3.23;2.87;;;;;;;;;;4999180;28;20323;-74
2021/11/24 14:26:45;;;;;;;3.00;2.70;;;;;;;;;;5000443;28;20268;-74
2021/11/24 14:29:12;;;;;;;3.30;3.00;;;;;;;;;;4999531;28;20302;-76
2021/11/24 14:31:38;;;;;;;4.37;3.67;;;;;;;;;;5000177;28;20209;-75
2021/11/24 14:34:06;;;;;;;3.60;2.80;;;;;;;;;;4998798;28;20240;-73
2021/11/24 14:36:33;;;;;;;4.10;2.97;;;;;;;;;;4999369;28;20223;-75
2021/11/24 14:39:00;;;;;;;3.63;3.23;;;;;;;;;;5000620;28;20243;-75
2021/11/24 14:41:26;;;;;;;4.07;3.37;;;;;;;;;;4998431;28;20216;-75
2021/11/24 14:43:52;;;;;;;3.33;3.03;;;;;;;;;;5000316;28;20223;-74
2021/11/24 14:46:19;;;;;;;5.40;3.27;;;;;;;;;;4999558;28;20222;-73